sensor_id;sensor_type;location;lat;lon;timestamp;temperature;humidity
32400;DHT22;45045;45.440;9.178;2023-07-31T00:00:33;30.30;97.00
32400;DHT22;45045;45.440;9.178;2023-07-31T00:02:59;30.40;97.00
32400;DHT22;45045;45.440;9.178;2023-07-31T00:05:25;30.40;96.70
32400;DHT22;45045;45.440;9.178;2023-07-31T00:07:51;30.30;97.40
32400;DHT22;45045;45.440;9.178;2023-07-31T00:10:16;30.10;98.60
32400;DHT22;45045;45.440;9.178;2023-07-31T00:12:44;30.00;98.60
32400;DHT22;45045;45.440;9.178;2023-07-31T00:15:10;30.00;98.70
32400;DHT22;45045;45.440;9.178;2023-07-31T00:17:37;30.00;98.60
32400;DHT22;45045;45.440;9.178;2023-07-31T00:20:03;30.10;98.10
32400;DHT22;45045;45.440;9.178;2023-07-31T00:22:29;30.10;98.60
32400;DHT22;45045;45.440;9.178;2023-07-31T00:24:56;29.90;98.90
32400;DHT22;45045;45.440;9.178;2023-07-31T00:27:22;29.90;98.50
32400;DHT22;45045;45.440;9.178;2023-07-31T00:29:48;30.00;98.30
32400;DHT22;45045;45.440;9.178;2023-07-31T00:32:13;30.00;98.40
32400;DHT22;45045;45.440;9.178;2023-07-31T00:34:39;30.00;98.30
32400;DHT22;45045;45.440;9.178;2023-07-31T00:37:05;30.10;98.30
32400;DHT22;45045;45.440;9.178;2023-07-31T00:39:33;30.00;98.30
32400;DHT22;45045;45.440;9.178;2023-07-31T00:41:59;29.90;98.20
32400;DHT22;45045;45.440;9.178;2023-07-31T00:44:25;29.90;98.20
32400;DHT22;45045;45.440;9.178;2023-07-31T00:46:50;29.90;98.30
32400;DHT22;45045;45.440;9.178;2023-07-31T00:49:16;29.70;98.80
32400;DHT22;45045;45.440;9.178;2023-07-31T00:51:42;29.80;98.50
32400;DHT22;45045;45.440;9.178;2023-07-31T00:54:07;29.90;98.40
32400;DHT22;45045;45.440;9.178;2023-07-31T00:56:33;29.80;98.50
32400;DHT22;45045;45.440;9.178;2023-07-31T00:58:59;29.80;98.60
32400;DHT22;45045;45.440;9.178;2023-07-31T01:01:25;29.70;98.60
32400;DHT22;45045;45.440;9.178;2023-07-31T01:03:52;29.60;98.90
32400;DHT22;45045;45.440;9.178;2023-07-31T01:06:31;29.60;99.00
32400;DHT22;45045;45.440;9.178;2023-07-31T01:09:08;29.60;99.00
32400;DHT22;45045;45.440;9.178;2023-07-31T01:11:46;29.70;98.80
32400;DHT22;45045;45.440;9.178;2023-07-31T01:14:13;29.60;98.90
32400;DHT22;45045;45.440;9.178;2023-07-31T01:16:39;29.70;98.70
32400;DHT22;45045;45.440;9.178;2023-07-31T01:19:06;29.60;99.40
32400;DHT22;45045;45.440;9.178;2023-07-31T01:21:57;29.50;99.70
32400;DHT22;45045;45.440;9.178;2023-07-31T01:24:56;29.60;99.50
32400;DHT22;45045;45.440;9.178;2023-07-31T01:27:30;29.60;99.30
32400;DHT22;45045;45.440;9.178;2023-07-31T01:30:05;29.60;99.40
32400;DHT22;45045;45.440;9.178;2023-07-31T01:32:38;29.60;99.20
32400;DHT22;45045;45.440;9.178;2023-07-31T01:35:05;29.70;99.20
32400;DHT22;45045;45.440;9.178;2023-07-31T01:37:31;29.60;99.20
32400;DHT22;45045;45.440;9.178;2023-07-31T01:39:57;29.50;99.30
32400;DHT22;45045;45.440;9.178;2023-07-31T01:42:22;29.50;99.50
32400;DHT22;45045;45.440;9.178;2023-07-31T01:44:48;29.50;99.70
32400;DHT22;45045;45.440;9.178;2023-07-31T01:47:14;29.50;99.50
32400;DHT22;45045;45.440;9.178;2023-07-31T01:49:39;29.40;99.90
32400;DHT22;45045;45.440;9.178;2023-07-31T01:52:05;29.30;99.80
32400;DHT22;45045;45.440;9.178;2023-07-31T01:54:31;29.30;99.90
32400;DHT22;45045;45.440;9.178;2023-07-31T01:56:57;29.30;99.80
32400;DHT22;45045;45.440;9.178;2023-07-31T01:59:22;29.30;99.90
32400;DHT22;45045;45.440;9.178;2023-07-31T02:01:48;29.20;99.90
32400;DHT22;45045;45.440;9.178;2023-07-31T02:04:14;29.30;99.90
32400;DHT22;45045;45.440;9.178;2023-07-31T02:06:39;29.10;99.90
32400;DHT22;45045;45.440;9.178;2023-07-31T02:09:05;29.20;99.90
32400;DHT22;45045;45.440;9.178;2023-07-31T02:11:31;29.20;99.90
32400;DHT22;45045;45.440;9.178;2023-07-31T02:13:56;29.20;99.90
32400;DHT22;45045;45.440;9.178;2023-07-31T02:16:22;29.20;99.90
32400;DHT22;45045;45.440;9.178;2023-07-31T02:18:48;29.20;99.90
32400;DHT22;45045;45.440;9.178;2023-07-31T02:21:13;29.20;99.90
32400;DHT22;45045;45.440;9.178;2023-07-31T02:23:39;29.10;99.90
32400;DHT22;45045;45.440;9.178;2023-07-31T02:26:05;29.10;99.90
32400;DHT22;45045;45.440;9.178;2023-07-31T02:28:30;29.20;99.90
32400;DHT22;45045;45.440;9.178;2023-07-31T02:30:56;29.20;99.90
32400;DHT22;45045;45.440;9.178;2023-07-31T02:33:21;29.10;99.90
32400;DHT22;45045;45.440;9.178;2023-07-31T02:35:47;29.00;99.90
32400;DHT22;45045;45.440;9.178;2023-07-31T02:38:13;29.10;99.90
32400;DHT22;45045;45.440;9.178;2023-07-31T02:40:40;29.10;99.90
32400;DHT22;45045;45.440;9.178;2023-07-31T02:43:07;29.10;99.90
32400;DHT22;45045;45.440;9.178;2023-07-31T02:45:33;29.10;99.90
32400;DHT22;45045;45.440;9.178;2023-07-31T02:47:58;29.10;99.90
32400;DHT22;45045;45.440;9.178;2023-07-31T02:50:24;29.00;99.90
32400;DHT22;45045;45.440;9.178;2023-07-31T02:52:50;28.90;99.90
32400;DHT22;45045;45.440;9.178;2023-07-31T02:55:16;29.00;99.90
32400;DHT22;45045;45.440;9.178;2023-07-31T02:57:41;29.00;99.90
32400;DHT22;45045;45.440;9.178;2023-07-31T03:00:07;28.90;99.90
32400;DHT22;45045;45.440;9.178;2023-07-31T03:02:33;29.00;99.90
32400;DHT22;45045;45.440;9.178;2023-07-31T03:04:59;29.10;99.90
32400;DHT22;45045;45.440;9.178;2023-07-31T03:07:25;29.10;99.90
32400;DHT22;45045;45.440;9.178;2023-07-31T03:09:50;28.90;99.90
32400;DHT22;45045;45.440;9.178;2023-07-31T03:12:16;29.00;99.90
32400;DHT22;45045;45.440;9.178;2023-07-31T03:14:42;29.10;99.90
32400;DHT22;45045;45.440;9.178;2023-07-31T03:17:08;29.00;99.90
32400;DHT22;45045;45.440;9.178;2023-07-31T03:19:33;29.00;99.90
32400;DHT22;45045;45.440;9.178;2023-07-31T03:21:59;29.00;99.90
32400;DHT22;45045;45.440;9.178;2023-07-31T03:24:26;29.00;99.90
32400;DHT22;45045;45.440;9.178;2023-07-31T03:26:51;29.00;99.90
32400;DHT22;45045;45.440;9.178;2023-07-31T03:29:17;29.00;99.90
32400;DHT22;45045;45.440;9.178;2023-07-31T03:31:43;29.00;99.90
32400;DHT22;45045;45.440;9.178;2023-07-31T03:34:08;29.00;99.90
32400;DHT22;45045;45.440;9.178;2023-07-31T03:36:34;29.00;99.90
32400;DHT22;45045;45.440;9.178;2023-07-31T03:39:00;29.00;99.90
32400;DHT22;45045;45.440;9.178;2023-07-31T03:41:25;29.00;99.90
32400;DHT22;45045;45.440;9.178;2023-07-31T03:43:51;29.00;99.90
32400;DHT22;45045;45.440;9.178;2023-07-31T03:46:24;29.00;99.90
32400;DHT22;45045;45.440;9.178;2023-07-31T03:48:50;29.00;99.90
32400;DHT22;45045;45.440;9.178;2023-07-31T03:51:16;28.90;99.90
32400;DHT22;45045;45.440;9.178;2023-07-31T03:53:43;28.90;99.90
32400;DHT22;45045;45.440;9.178;2023-07-31T03:56:09;29.00;99.90
32400;DHT22;45045;45.440;9.178;2023-07-31T03:58:34;29.00;99.90
32400;DHT22;45045;45.440;9.178;2023-07-31T04:01:01;28.90;99.90
32400;DHT22;45045;45.440;9.178;2023-07-31T04:03:27;28.80;99.90
32400;DHT22;45045;45.440;9.178;2023-07-31T04:05:54;28.90;99.90
32400;DHT22;45045;45.440;9.178;2023-07-31T04:08:20;28.90;99.90
32400;DHT22;45045;45.440;9.178;2023-07-31T04:10:46;28.80;99.90
32400;DHT22;45045;45.440;9.178;2023-07-31T04:13:12;28.90;99.90
32400;DHT22;45045;45.440;9.178;2023-07-31T04:15:38;28.80;99.90
32400;DHT22;45045;45.440;9.178;2023-07-31T04:18:05;28.90;99.90
32400;DHT22;45045;45.440;9.178;2023-07-31T04:20:30;28.90;99.90
32400;DHT22;45045;45.440;9.178;2023-07-31T04:22:56;28.80;99.90
32400;DHT22;45045;45.440;9.178;2023-07-31T04:25:22;28.80;99.90
32400;DHT22;45045;45.440;9.178;2023-07-31T04:27:47;28.70;99.90
32400;DHT22;45045;45.440;9.178;2023-07-31T04:30:13;28.80;99.90
32400;DHT22;45045;45.440;9.178;2023-07-31T04:32:39;28.90;99.90
32400;DHT22;45045;45.440;9.178;2023-07-31T04:35:05;28.90;99.90
32400;DHT22;45045;45.440;9.178;2023-07-31T04:37:31;29.00;99.90
32400;DHT22;45045;45.440;9.178;2023-07-31T04:39:57;29.00;99.90
32400;DHT22;45045;45.440;9.178;2023-07-31T04:42:22;29.00;99.90
32400;DHT22;45045;45.440;9.178;2023-07-31T04:44:48;29.00;99.90
32400;DHT22;45045;45.440;9.178;2023-07-31T04:47:14;29.00;99.90
32400;DHT22;45045;45.440;9.178;2023-07-31T04:49:39;29.00;99.90
32400;DHT22;45045;45.440;9.178;2023-07-31T04:52:05;29.00;99.80
32400;DHT22;45045;45.440;9.178;2023-07-31T04:54:31;29.00;99.60
32400;DHT22;45045;45.440;9.178;2023-07-31T04:56:57;29.00;99.60
32400;DHT22;45045;45.440;9.178;2023-07-31T04:59:22;29.00;99.50
32400;DHT22;45045;45.440;9.178;2023-07-31T05:01:48;29.10;99.50
32400;DHT22;45045;45.440;9.178;2023-07-31T05:04:14;29.10;99.50
32400;DHT22;45045;45.440;9.178;2023-07-31T05:06:40;29.00;99.90
32400;DHT22;45045;45.440;9.178;2023-07-31T05:09:06;29.10;99.40
32400;DHT22;45045;45.440;9.178;2023-07-31T05:11:32;29.10;99.60
32400;DHT22;45045;45.440;9.178;2023-07-31T05:13:57;29.10;99.40
32400;DHT22;45045;45.440;9.178;2023-07-31T05:16:23;29.00;99.40
32400;DHT22;45045;45.440;9.178;2023-07-31T05:18:49;29.00;99.30
32400;DHT22;45045;45.440;9.178;2023-07-31T05:21:14;29.00;99.80
32400;DHT22;45045;45.440;9.178;2023-07-31T05:23:40;28.90;99.90
32400;DHT22;45045;45.440;9.178;2023-07-31T05:26:06;28.90;99.70
32400;DHT22;45045;45.440;9.178;2023-07-31T05:28:34;28.90;99.90
32400;DHT22;45045;45.440;9.178;2023-07-31T05:31:01;28.70;99.90
32400;DHT22;45045;45.440;9.178;2023-07-31T05:33:27;28.60;99.90
32400;DHT22;45045;45.440;9.178;2023-07-31T05:35:52;28.70;99.90
32400;DHT22;45045;45.440;9.178;2023-07-31T05:38:18;28.70;99.90
32400;DHT22;45045;45.440;9.178;2023-07-31T05:40:44;28.80;99.90
32400;DHT22;45045;45.440;9.178;2023-07-31T05:43:10;28.80;99.90
32400;DHT22;45045;45.440;9.178;2023-07-31T05:45:35;28.60;99.90
32400;DHT22;45045;45.440;9.178;2023-07-31T05:48:02;28.40;99.90
32400;DHT22;45045;45.440;9.178;2023-07-31T05:50:28;28.50;99.90
32400;DHT22;45045;45.440;9.178;2023-07-31T05:52:54;28.40;99.90
32400;DHT22;45045;45.440;9.178;2023-07-31T05:55:19;28.30;99.90
32400;DHT22;45045;45.440;9.178;2023-07-31T05:57:46;28.30;99.90
32400;DHT22;45045;45.440;9.178;2023-07-31T06:00:12;28.30;99.90
32400;DHT22;45045;45.440;9.178;2023-07-31T06:02:38;28.30;99.90
32400;DHT22;45045;45.440;9.178;2023-07-31T06:05:05;28.10;99.90
32400;DHT22;45045;45.440;9.178;2023-07-31T06:07:34;28.00;99.90
32400;DHT22;45045;45.440;9.178;2023-07-31T06:09:59;28.10;99.90
32400;DHT22;45045;45.440;9.178;2023-07-31T06:12:30;28.10;99.90
32400;DHT22;45045;45.440;9.178;2023-07-31T06:14:56;28.20;99.90
32400;DHT22;45045;45.440;9.178;2023-07-31T06:17:22;28.30;99.90
32400;DHT22;45045;45.440;9.178;2023-07-31T06:19:48;28.50;99.90
32400;DHT22;45045;45.440;9.178;2023-07-31T06:22:13;28.60;99.90
32400;DHT22;45045;45.440;9.178;2023-07-31T06:24:39;28.50;99.90
32400;DHT22;45045;45.440;9.178;2023-07-31T06:27:05;28.60;99.90
32400;DHT22;45045;45.440;9.178;2023-07-31T06:29:31;28.60;99.90
32400;DHT22;45045;45.440;9.178;2023-07-31T06:31:57;28.60;99.90
32400;DHT22;45045;45.440;9.178;2023-07-31T06:34:22;28.70;99.90
32400;DHT22;45045;45.440;9.178;2023-07-31T06:36:48;28.40;99.90
32400;DHT22;45045;45.440;9.178;2023-07-31T06:39:14;28.20;99.90
32400;DHT22;45045;45.440;9.178;2023-07-31T06:41:39;28.50;99.90
32400;DHT22;45045;45.440;9.178;2023-07-31T06:44:05;28.50;99.90
32400;DHT22;45045;45.440;9.178;2023-07-31T06:46:31;28.60;99.90
32400;DHT22;45045;45.440;9.178;2023-07-31T06:48:56;28.70;99.90
32400;DHT22;45045;45.440;9.178;2023-07-31T06:51:22;28.50;99.90
32400;DHT22;45045;45.440;9.178;2023-07-31T06:53:48;28.50;99.90
32400;DHT22;45045;45.440;9.178;2023-07-31T06:56:13;28.60;99.90
32400;DHT22;45045;45.440;9.178;2023-07-31T06:58:39;28.50;99.70
32400;DHT22;45045;45.440;9.178;2023-07-31T07:01:05;28.70;99.90
32400;DHT22;45045;45.440;9.178;2023-07-31T07:03:31;28.60;99.40
32400;DHT22;45045;45.440;9.178;2023-07-31T07:05:57;28.60;99.40
32400;DHT22;45045;45.440;9.178;2023-07-31T07:08:24;28.70;99.20
32400;DHT22;45045;45.440;9.178;2023-07-31T07:10:50;28.90;99.10
32400;DHT22;45045;45.440;9.178;2023-07-31T07:13:15;29.10;98.20
32400;DHT22;45045;45.440;9.178;2023-07-31T07:15:41;29.20;98.30
32400;DHT22;45045;45.440;9.178;2023-07-31T07:18:07;29.30;98.30
32400;DHT22;45045;45.440;9.178;2023-07-31T07:20:32;29.30;97.80
32400;DHT22;45045;45.440;9.178;2023-07-31T07:22:58;29.40;97.10
32400;DHT22;45045;45.440;9.178;2023-07-31T07:25:24;29.40;97.00
32400;DHT22;45045;45.440;9.178;2023-07-31T07:27:49;29.40;97.00
32400;DHT22;45045;45.440;9.178;2023-07-31T07:30:15;29.50;96.70
32400;DHT22;45045;45.440;9.178;2023-07-31T07:32:40;29.40;97.20
32400;DHT22;45045;45.440;9.178;2023-07-31T07:35:07;29.40;97.10
32400;DHT22;45045;45.440;9.178;2023-07-31T07:37:32;29.50;97.00
32400;DHT22;45045;45.440;9.178;2023-07-31T07:39:59;29.60;97.00
32400;DHT22;45045;45.440;9.178;2023-07-31T07:42:24;29.60;96.90
32400;DHT22;45045;45.440;9.178;2023-07-31T07:44:50;29.60;96.60
32400;DHT22;45045;45.440;9.178;2023-07-31T07:47:16;29.60;96.90
32400;DHT22;45045;45.440;9.178;2023-07-31T07:49:42;29.60;96.90
32400;DHT22;45045;45.440;9.178;2023-07-31T07:52:07;29.70;96.50
32400;DHT22;45045;45.440;9.178;2023-07-31T07:54:33;29.80;96.60
32400;DHT22;45045;45.440;9.178;2023-07-31T07:56:59;29.90;95.80
32400;DHT22;45045;45.440;9.178;2023-07-31T07:59:25;29.80;96.00
32400;DHT22;45045;45.440;9.178;2023-07-31T08:01:50;29.90;96.00
32400;DHT22;45045;45.440;9.178;2023-07-31T08:04:16;29.90;95.50
32400;DHT22;45045;45.440;9.178;2023-07-31T08:06:41;29.90;96.00
32400;DHT22;45045;45.440;9.178;2023-07-31T08:09:07;29.90;96.00
32400;DHT22;45045;45.440;9.178;2023-07-31T08:11:34;30.00;96.10
32400;DHT22;45045;45.440;9.178;2023-07-31T08:14:00;29.90;96.20
32400;DHT22;45045;45.440;9.178;2023-07-31T08:16:25;30.00;96.20
32400;DHT22;45045;45.440;9.178;2023-07-31T08:18:51;30.10;95.80
32400;DHT22;45045;45.440;9.178;2023-07-31T08:21:17;30.20;95.80
32400;DHT22;45045;45.440;9.178;2023-07-31T08:23:44;30.00;95.70
32400;DHT22;45045;45.440;9.178;2023-07-31T08:26:15;30.10;95.20
32400;DHT22;45045;45.440;9.178;2023-07-31T08:28:41;30.00;95.40
32400;DHT22;45045;45.440;9.178;2023-07-31T08:31:07;30.00;94.80
32400;DHT22;45045;45.440;9.178;2023-07-31T08:33:32;30.00;95.50
32400;DHT22;45045;45.440;9.178;2023-07-31T08:35:58;30.10;95.50
32400;DHT22;45045;45.440;9.178;2023-07-31T08:38:25;30.20;95.50
32400;DHT22;45045;45.440;9.178;2023-07-31T08:40:51;30.10;95.50
32400;DHT22;45045;45.440;9.178;2023-07-31T08:43:16;30.10;95.60
32400;DHT22;45045;45.440;9.178;2023-07-31T08:45:42;30.20;95.60
32400;DHT22;45045;45.440;9.178;2023-07-31T08:48:08;30.40;95.50
32400;DHT22;45045;45.440;9.178;2023-07-31T08:50:35;30.30;95.30
32400;DHT22;45045;45.440;9.178;2023-07-31T08:53:01;30.40;95.30
32400;DHT22;45045;45.440;9.178;2023-07-31T08:55:28;30.50;95.00
32400;DHT22;45045;45.440;9.178;2023-07-31T08:57:55;30.50;94.60
32400;DHT22;45045;45.440;9.178;2023-07-31T09:00:21;30.50;94.90
32400;DHT22;45045;45.440;9.178;2023-07-31T09:03:06;30.60;94.50
32400;DHT22;45045;45.440;9.178;2023-07-31T09:05:33;30.60;94.60
32400;DHT22;45045;45.440;9.178;2023-07-31T09:08:02;30.60;94.20
32400;DHT22;45045;45.440;9.178;2023-07-31T09:10:29;30.50;94.50
32400;DHT22;45045;45.440;9.178;2023-07-31T09:12:56;30.70;94.60
32400;DHT22;45045;45.440;9.178;2023-07-31T09:15:22;30.90;94.10
32400;DHT22;45045;45.440;9.178;2023-07-31T09:18:01;31.00;93.80
32400;DHT22;45045;45.440;9.178;2023-07-31T09:20:27;31.00;94.10
32400;DHT22;45045;45.440;9.178;2023-07-31T09:22:53;31.10;94.00
32400;DHT22;45045;45.440;9.178;2023-07-31T09:25:23;31.00;94.10
32400;DHT22;45045;45.440;9.178;2023-07-31T09:28:03;31.00;94.10
32400;DHT22;45045;45.440;9.178;2023-07-31T09:30:29;31.00;94.10
32400;DHT22;45045;45.440;9.178;2023-07-31T09:33:06;31.20;94.20
32400;DHT22;45045;45.440;9.178;2023-07-31T09:35:33;31.30;94.00
32400;DHT22;45045;45.440;9.178;2023-07-31T09:38:10;31.20;94.00
32400;DHT22;45045;45.440;9.178;2023-07-31T09:40:38;31.10;94.10
32400;DHT22;45045;45.440;9.178;2023-07-31T09:43:06;31.20;94.30
32400;DHT22;45045;45.440;9.178;2023-07-31T09:45:37;31.00;94.10
32400;DHT22;45045;45.440;9.178;2023-07-31T09:48:03;31.00;94.30
32400;DHT22;45045;45.440;9.178;2023-07-31T09:50:31;31.10;94.70
32400;DHT22;45045;45.440;9.178;2023-07-31T09:52:57;31.00;94.30
32400;DHT22;45045;45.440;9.178;2023-07-31T09:55:24;31.10;94.10
32400;DHT22;45045;45.440;9.178;2023-07-31T09:57:50;31.10;94.50
32400;DHT22;45045;45.440;9.178;2023-07-31T10:00:17;31.30;94.30
32400;DHT22;45045;45.440;9.178;2023-07-31T10:02:47;31.30;93.90
32400;DHT22;45045;45.440;9.178;2023-07-31T10:05:16;31.40;93.80
32400;DHT22;45045;45.440;9.178;2023-07-31T10:07:45;31.40;94.10
32400;DHT22;45045;45.440;9.178;2023-07-31T10:10:11;31.40;93.70
32400;DHT22;45045;45.440;9.178;2023-07-31T10:12:37;31.40;94.20
32400;DHT22;45045;45.440;9.178;2023-07-31T10:15:04;31.40;93.90
32400;DHT22;45045;45.440;9.178;2023-07-31T10:17:30;31.30;93.90
32400;DHT22;45045;45.440;9.178;2023-07-31T10:19:59;31.50;94.10
32400;DHT22;45045;45.440;9.178;2023-07-31T10:22:26;31.70;93.50
32400;DHT22;45045;45.440;9.178;2023-07-31T10:24:52;31.70;93.20
32400;DHT22;45045;45.440;9.178;2023-07-31T10:27:20;31.80;93.50
32400;DHT22;45045;45.440;9.178;2023-07-31T10:29:47;32.00;93.20
32400;DHT22;45045;45.440;9.178;2023-07-31T10:32:15;32.00;93.00
32400;DHT22;45045;45.440;9.178;2023-07-31T10:34:41;32.00;93.10
32400;DHT22;45045;45.440;9.178;2023-07-31T10:37:56;32.20;92.90
32400;DHT22;45045;45.440;9.178;2023-07-31T10:40:19;32.00;92.70
32400;DHT22;45045;45.440;9.178;2023-07-31T10:42:49;32.00;92.80
32400;DHT22;45045;45.440;9.178;2023-07-31T10:45:26;32.00;92.90
32400;DHT22;45045;45.440;9.178;2023-07-31T10:47:59;32.10;93.10
32400;DHT22;45045;45.440;9.178;2023-07-31T10:50:26;32.10;92.70
32400;DHT22;45045;45.440;9.178;2023-07-31T10:52:53;32.10;92.80
32400;DHT22;45045;45.440;9.178;2023-07-31T10:55:31;32.10;93.10
32400;DHT22;45045;45.440;9.178;2023-07-31T10:58:07;32.40;92.80
32400;DHT22;45045;45.440;9.178;2023-07-31T11:00:33;32.40;92.60
32400;DHT22;45045;45.440;9.178;2023-07-31T11:03:07;32.50;92.40
32400;DHT22;45045;45.440;9.178;2023-07-31T11:08:23;32.50;92.30
32400;DHT22;45045;45.440;9.178;2023-07-31T11:13:31;32.30;92.30
32400;DHT22;45045;45.440;9.178;2023-07-31T11:15:57;32.20;92.30
32400;DHT22;45045;45.440;9.178;2023-07-31T11:18:24;32.30;92.70
32400;DHT22;45045;45.440;9.178;2023-07-31T11:20:49;32.50;92.50
32400;DHT22;45045;45.440;9.178;2023-07-31T11:23:17;32.50;92.30
32400;DHT22;45045;45.440;9.178;2023-07-31T11:25:43;32.50;92.30
32400;DHT22;45045;45.440;9.178;2023-07-31T11:28:10;32.60;92.10
32400;DHT22;45045;45.440;9.178;2023-07-31T11:30:37;32.60;92.30
32400;DHT22;45045;45.440;9.178;2023-07-31T11:33:04;32.30;92.20
32400;DHT22;45045;45.440;9.178;2023-07-31T11:36:10;32.40;92.80
32400;DHT22;45045;45.440;9.178;2023-07-31T11:38:28;32.50;92.00
32400;DHT22;45045;45.440;9.178;2023-07-31T11:40:55;32.60;92.50
32400;DHT22;45045;45.440;9.178;2023-07-31T11:43:22;32.80;92.40
32400;DHT22;45045;45.440;9.178;2023-07-31T11:45:56;32.90;92.00
32400;DHT22;45045;45.440;9.178;2023-07-31T11:48:30;32.80;92.00
32400;DHT22;45045;45.440;9.178;2023-07-31T11:51:04;32.80;91.80
32400;DHT22;45045;45.440;9.178;2023-07-31T11:53:50;32.70;91.70
32400;DHT22;45045;45.440;9.178;2023-07-31T11:56:20;32.70;91.70
32400;DHT22;45045;45.440;9.178;2023-07-31T11:58:51;32.80;92.00
32400;DHT22;45045;45.440;9.178;2023-07-31T12:01:19;33.00;91.30
32400;DHT22;45045;45.440;9.178;2023-07-31T12:03:47;32.90;91.20
32400;DHT22;45045;45.440;9.178;2023-07-31T12:06:13;32.90;90.80
32400;DHT22;45045;45.440;9.178;2023-07-31T12:08:38;32.90;91.20
32400;DHT22;45045;45.440;9.178;2023-07-31T12:11:05;32.80;91.20
32400;DHT22;45045;45.440;9.178;2023-07-31T12:13:32;32.80;91.30
32400;DHT22;45045;45.440;9.178;2023-07-31T12:16:01;33.00;91.50
32400;DHT22;45045;45.440;9.178;2023-07-31T12:18:30;33.10;91.00
32400;DHT22;45045;45.440;9.178;2023-07-31T12:21:00;33.00;90.90
32400;DHT22;45045;45.440;9.178;2023-07-31T12:23:30;33.00;91.10
32400;DHT22;45045;45.440;9.178;2023-07-31T12:26:11;33.00;91.30
32400;DHT22;45045;45.440;9.178;2023-07-31T12:28:37;33.20;91.10
32400;DHT22;45045;45.440;9.178;2023-07-31T12:31:04;33.30;90.80
32400;DHT22;45045;45.440;9.178;2023-07-31T12:33:32;33.40;90.60
32400;DHT22;45045;45.440;9.178;2023-07-31T12:36:01;33.20;90.40
32400;DHT22;45045;45.440;9.178;2023-07-31T12:38:27;33.10;90.50
32400;DHT22;45045;45.440;9.178;2023-07-31T12:40:52;33.10;91.00
32400;DHT22;45045;45.440;9.178;2023-07-31T12:43:18;32.90;90.70
32400;DHT22;45045;45.440;9.178;2023-07-31T12:45:43;32.90;90.90
32400;DHT22;45045;45.440;9.178;2023-07-31T12:48:09;33.00;90.70
32400;DHT22;45045;45.440;9.178;2023-07-31T12:50:35;33.00;90.20
32400;DHT22;45045;45.440;9.178;2023-07-31T12:53:02;32.90;90.70
32400;DHT22;45045;45.440;9.178;2023-07-31T12:55:31;32.80;90.60
32400;DHT22;45045;45.440;9.178;2023-07-31T12:57:58;32.90;90.90
32400;DHT22;45045;45.440;9.178;2023-07-31T13:00:23;33.10;90.90
32400;DHT22;45045;45.440;9.178;2023-07-31T13:02:49;32.90;90.40
32400;DHT22;45045;45.440;9.178;2023-07-31T13:05:15;33.10;90.60
32400;DHT22;45045;45.440;9.178;2023-07-31T13:07:40;33.20;90.80
32400;DHT22;45045;45.440;9.178;2023-07-31T13:10:07;33.30;90.40
32400;DHT22;45045;45.440;9.178;2023-07-31T13:12:33;32.90;90.20
32400;DHT22;45045;45.440;9.178;2023-07-31T13:14:59;32.70;90.70
32400;DHT22;45045;45.440;9.178;2023-07-31T13:17:25;32.60;91.00
32400;DHT22;45045;45.440;9.178;2023-07-31T13:19:50;32.80;91.00
32400;DHT22;45045;45.440;9.178;2023-07-31T13:22:16;33.10;90.50
32400;DHT22;45045;45.440;9.178;2023-07-31T13:24:42;33.30;90.10
32400;DHT22;45045;45.440;9.178;2023-07-31T13:27:07;33.40;89.50
32400;DHT22;45045;45.440;9.178;2023-07-31T13:29:33;33.50;89.70
32400;DHT22;45045;45.440;9.178;2023-07-31T13:31:58;33.60;89.20
32400;DHT22;45045;45.440;9.178;2023-07-31T13:34:24;33.60;88.50
32400;DHT22;45045;45.440;9.178;2023-07-31T13:36:50;33.30;88.60
32400;DHT22;45045;45.440;9.178;2023-07-31T13:39:15;33.30;89.40
32400;DHT22;45045;45.440;9.178;2023-07-31T13:41:41;33.40;89.00
32400;DHT22;45045;45.440;9.178;2023-07-31T13:44:07;33.50;89.10
32400;DHT22;45045;45.440;9.178;2023-07-31T13:46:32;33.70;88.90
32400;DHT22;45045;45.440;9.178;2023-07-31T13:49:00;33.70;88.00
32400;DHT22;45045;45.440;9.178;2023-07-31T13:51:27;33.80;87.80
32400;DHT22;45045;45.440;9.178;2023-07-31T13:53:55;33.50;87.60
32400;DHT22;45045;45.440;9.178;2023-07-31T13:56:21;33.50;87.10
32400;DHT22;45045;45.440;9.178;2023-07-31T13:58:49;33.70;87.10
32400;DHT22;45045;45.440;9.178;2023-07-31T14:01:16;33.50;86.90
32400;DHT22;45045;45.440;9.178;2023-07-31T14:03:42;33.60;86.90
32400;DHT22;45045;45.440;9.178;2023-07-31T14:06:07;33.60;86.30
32400;DHT22;45045;45.440;9.178;2023-07-31T14:08:33;33.80;86.20
32400;DHT22;45045;45.440;9.178;2023-07-31T14:10:59;33.70;85.40
32400;DHT22;45045;45.440;9.178;2023-07-31T14:13:24;33.70;86.20
32400;DHT22;45045;45.440;9.178;2023-07-31T14:15:50;33.60;86.30
32400;DHT22;45045;45.440;9.178;2023-07-31T14:18:15;33.60;86.20
32400;DHT22;45045;45.440;9.178;2023-07-31T14:20:41;33.80;85.80
32400;DHT22;45045;45.440;9.178;2023-07-31T14:23:07;33.80;85.20
32400;DHT22;45045;45.440;9.178;2023-07-31T14:25:32;33.70;85.80
32400;DHT22;45045;45.440;9.178;2023-07-31T14:27:58;33.80;85.50
32400;DHT22;45045;45.440;9.178;2023-07-31T14:30:24;33.80;84.60
32400;DHT22;45045;45.440;9.178;2023-07-31T14:32:49;33.60;85.10
32400;DHT22;45045;45.440;9.178;2023-07-31T14:35:15;33.60;84.90
32400;DHT22;45045;45.440;9.178;2023-07-31T14:37:42;33.60;85.20
32400;DHT22;45045;45.440;9.178;2023-07-31T14:40:09;33.50;84.70
32400;DHT22;45045;45.440;9.178;2023-07-31T14:42:36;33.70;84.80
32400;DHT22;45045;45.440;9.178;2023-07-31T14:45:04;33.80;84.50
32400;DHT22;45045;45.440;9.178;2023-07-31T14:47:30;34.00;83.70
32400;DHT22;45045;45.440;9.178;2023-07-31T14:49:59;33.90;83.40
32400;DHT22;45045;45.440;9.178;2023-07-31T14:52:25;33.80;83.90
32400;DHT22;45045;45.440;9.178;2023-07-31T14:54:51;33.80;84.70
32400;DHT22;45045;45.440;9.178;2023-07-31T14:57:17;33.70;84.00
32400;DHT22;45045;45.440;9.178;2023-07-31T14:59:43;33.80;83.80
32400;DHT22;45045;45.440;9.178;2023-07-31T15:02:09;33.50;83.00
32400;DHT22;45045;45.440;9.178;2023-07-31T15:04:35;33.70;83.50
32400;DHT22;45045;45.440;9.178;2023-07-31T15:07:01;33.90;82.30
32400;DHT22;45045;45.440;9.178;2023-07-31T15:09:26;33.70;81.70
32400;DHT22;45045;45.440;9.178;2023-07-31T15:11:52;33.70;81.30
32400;DHT22;45045;45.440;9.178;2023-07-31T15:14:18;33.80;82.30
32400;DHT22;45045;45.440;9.178;2023-07-31T15:16:43;33.90;81.60
32400;DHT22;45045;45.440;9.178;2023-07-31T15:19:09;33.90;80.80
32400;DHT22;45045;45.440;9.178;2023-07-31T15:21:36;33.80;82.30
32400;DHT22;45045;45.440;9.178;2023-07-31T15:24:02;33.80;82.00
32400;DHT22;45045;45.440;9.178;2023-07-31T15:26:28;33.70;81.50
32400;DHT22;45045;45.440;9.178;2023-07-31T15:29:06;33.80;81.60
32400;DHT22;45045;45.440;9.178;2023-07-31T15:31:38;33.80;81.00
32400;DHT22;45045;45.440;9.178;2023-07-31T15:34:04;33.80;80.80